createdAt,value
2018-06-02T00:02:57.028Z,93.70
2018-06-02T00:07:50.311Z,93.70
2018-06-02T00:12:44.370Z,93.80
2018-06-02T00:17:37.661Z,93.70
2018-06-02T00:22:30.949Z,94.20
2018-06-02T00:27:24.256Z,93.80
2018-06-02T00:32:18.309Z,94.30
2018-06-02T00:37:11.604Z,94.00
2018-06-02T00:42:04.900Z,94.30
2018-06-02T00:46:58.195Z,94.20
2018-06-02T00:51:52.250Z,94.80
2018-06-02T00:56:45.539Z,94.70
2018-06-02T01:01:38.900Z,94.80
2018-06-02T01:06:32.171Z,95.00
2018-06-02T01:11:25.464Z,95.40
2018-06-02T01:16:18.774Z,95.50
2018-06-02T01:21:12.899Z,95.40
2018-06-02T01:26:06.200Z,95.40
2018-06-02T01:30:59.491Z,95.80
2018-06-02T01:35:52.831Z,95.50
2018-06-02T01:40:46.122Z,96.10
2018-06-02T01:45:39.420Z,95.80
2018-06-02T01:50:32.723Z,95.90
2018-06-02T01:55:26.769Z,96.30
2018-06-02T02:00:20.053Z,96.30
2018-06-02T02:05:13.348Z,96.70
2018-06-02T02:10:06.633Z,96.60
2018-06-02T02:14:59.924Z,96.70
2018-06-02T02:19:53.970Z,96.30
2018-06-02T02:24:47.279Z,96.30
2018-06-02T02:29:40.544Z,96.80
2018-06-02T02:34:33.835Z,96.40
2018-06-02T02:39:27.127Z,96.20
2018-06-02T02:44:21.181Z,96.50
2018-06-02T02:49:14.477Z,96.50
2018-06-02T02:54:07.798Z,96.70
2018-06-02T02:59:01.097Z,96.10
2018-06-02T03:03:54.399Z,96.60
2018-06-02T03:08:47.688Z,96.50
2018-06-02T03:13:40.994Z,96.40
2018-06-02T03:18:35.042Z,96.80
2018-06-02T03:23:28.331Z,96.80
2018-06-02T03:28:21.643Z,97.50
2018-06-02T03:33:14.962Z,97.50
2018-06-02T03:38:08.255Z,97.30
2018-06-02T03:43:01.547Z,96.70
2018-06-02T03:47:54.846Z,96.60
2018-06-02T03:52:48.896Z,97.50
2018-06-02T03:57:42.190Z,97.40
2018-06-02T04:02:35.486Z,97.00
2018-06-02T04:07:29.556Z,97.10
2018-06-02T04:12:22.838Z,97.10
2018-06-02T04:17:16.122Z,97.40
2018-06-02T04:22:09.422Z,97.30
2018-06-02T04:27:02.735Z,97.30
2018-06-02T04:31:56.024Z,96.60
2018-06-02T04:36:49.318Z,96.60
2018-06-02T04:41:42.624Z,96.60
2018-06-02T04:46:36.683Z,96.00
2018-06-02T04:51:29.954Z,96.00
2018-06-02T04:56:23.242Z,95.30
2018-06-02T05:01:16.530Z,94.80
2018-06-02T05:06:09.832Z,94.10
2018-06-02T05:11:03.894Z,93.70
2018-06-02T05:15:57.191Z,93.70
2018-06-02T05:20:51.251Z,93.30
2018-06-02T05:25:44.548Z,93.20
2018-06-02T05:30:37.834Z,92.40
2018-06-02T05:35:31.891Z,92.00
2018-06-02T05:40:25.228Z,92.00
2018-06-02T05:45:18.476Z,91.80
2018-06-02T05:50:11.759Z,90.50
2018-06-02T05:55:07.501Z,90.80
2018-06-02T06:00:01.574Z,91.30
2018-06-02T06:04:54.849Z,91.30
2018-06-02T06:53:11.884Z,90.80
2018-06-02T06:58:05.195Z,90.50
2018-06-02T07:02:58.479Z,88.90
2018-06-02T07:07:51.810Z,87.60
2018-06-02T07:12:45.106Z,86.40
2018-06-02T07:17:39.159Z,85.50
2018-06-02T07:22:32.445Z,85.50
2018-06-02T07:27:25.738Z,85.50
2018-06-02T07:32:19.035Z,85.30
2018-06-02T07:37:13.111Z,90.30
2018-06-02T07:42:06.403Z,90.30
2018-06-02T07:46:59.708Z,91.00
2018-06-02T07:51:52.994Z,90.30
2018-06-02T07:56:47.062Z,82.60
2018-06-02T08:01:41.118Z,80.00
2018-06-02T08:06:34.408Z,80.00
2018-06-02T08:11:27.685Z,78.60
2018-06-02T08:16:20.976Z,75.00
2018-06-02T08:21:15.138Z,73.10
2018-06-02T08:26:08.433Z,73.00
2018-06-02T08:31:01.723Z,70.90
2018-06-02T08:35:55.786Z,66.80
2018-06-02T08:40:49.083Z,66.50
2018-06-02T08:45:42.390Z,69.10
2018-06-02T08:50:35.692Z,67.80
2018-06-02T08:55:28.987Z,71.80
2018-06-02T09:00:22.295Z,71.20
2018-06-02T09:05:15.574Z,71.50
2018-06-02T09:10:09.636Z,71.80
2018-06-02T09:15:02.948Z,71.70
2018-06-02T09:19:57.082Z,68.70
2018-06-02T09:24:50.380Z,68.70
2018-06-02T09:29:43.696Z,66.60
2018-06-02T09:34:37.763Z,64.50
2018-06-02T09:39:31.046Z,64.40
2018-06-02T09:44:24.340Z,62.20
2018-06-02T09:49:18.414Z,62.90
2018-06-02T09:54:11.722Z,62.80
2018-06-02T09:59:05.784Z,61.90
2018-06-02T10:03:59.080Z,62.10
2018-06-02T10:08:52.390Z,61.00
2018-06-02T10:13:45.703Z,58.40
2018-06-02T10:18:38.995Z,59.40
2018-06-02T10:23:32.295Z,59.40
2018-06-02T10:28:26.375Z,54.30
2018-06-02T10:33:19.657Z,54.30
2018-06-02T10:38:12.956Z,58.80
2018-06-02T10:43:07.040Z,53.50
2018-06-02T10:48:01.104Z,60.10
2018-06-02T10:52:54.435Z,60.00
2018-06-02T10:57:47.725Z,55.80
2018-06-02T11:02:41.797Z,57.10
2018-06-02T11:07:35.868Z,55.60
2018-06-02T11:12:29.168Z,55.70
2018-06-02T11:17:23.230Z,52.00
2018-06-02T11:22:16.517Z,52.10
2018-06-02T11:27:09.834Z,54.60
2018-06-02T11:32:03.153Z,50.00
2018-06-02T11:36:56.451Z,50.10
2018-06-02T11:41:49.765Z,51.10
2018-06-02T11:46:43.038Z,51.20
2018-06-02T11:51:36.347Z,51.00
2018-06-02T11:56:29.650Z,50.20
2018-06-02T12:01:22.960Z,51.70
2018-06-02T12:06:17.035Z,50.50
2018-06-02T12:11:10.406Z,50.50
2018-06-02T12:16:04.498Z,51.70
2018-06-02T12:20:57.794Z,51.70
2018-06-02T12:25:51.856Z,50.40
2018-06-02T12:30:45.153Z,50.00
2018-06-02T12:35:38.614Z,49.50
2018-06-02T12:40:31.921Z,46.90
2018-06-02T12:45:25.992Z,52.30
2018-06-02T12:50:19.309Z,52.30
2018-06-02T12:55:13.362Z,53.40
2018-06-02T13:00:06.673Z,53.40
2018-06-02T13:05:00.722Z,53.90
2018-06-02T13:09:54.019Z,53.90
2018-06-02T13:14:47.318Z,53.70
2018-06-02T13:19:40.636Z,56.60
2018-06-02T13:24:34.694Z,52.90
2018-06-02T13:29:28.751Z,53.60
2018-06-02T13:34:22.103Z,53.60
2018-06-02T13:39:15.404Z,55.70
2018-06-02T13:44:08.710Z,53.60
2018-06-02T13:49:02.782Z,53.30
2018-06-02T13:53:56.080Z,53.40
2018-06-02T13:58:50.155Z,51.50
2018-06-02T14:03:43.451Z,51.40
2018-06-02T14:08:36.747Z,53.60
2018-06-02T14:13:30.827Z,52.50
2018-06-02T14:18:24.875Z,53.50
2018-06-02T14:23:18.176Z,53.50
2018-06-02T14:28:13.303Z,55.50
2018-06-02T14:33:06.611Z,54.10
2018-06-02T14:38:00.724Z,56.50
2018-06-02T14:42:55.724Z,52.10
2018-06-02T14:47:49.786Z,56.00
2018-06-02T14:52:43.078Z,56.00
2018-06-02T14:57:37.135Z,52.60
2018-06-02T15:02:31.641Z,53.20
2018-06-02T15:07:24.938Z,53.40
2018-06-02T15:12:18.230Z,53.20
2018-06-02T15:17:12.296Z,52.60
2018-06-02T15:22:05.582Z,52.70
2018-06-02T15:26:58.893Z,54.40
2018-06-02T15:31:52.932Z,56.50
2018-06-02T15:36:46.226Z,56.50
2018-06-02T15:41:39.519Z,51.30
2018-06-02T15:46:32.803Z,51.90
2018-06-02T15:51:26.091Z,53.90
2018-06-02T15:56:20.155Z,55.80
2018-06-02T16:01:13.452Z,56.00
2018-06-02T16:06:07.507Z,50.30
2018-06-02T16:11:00.808Z,50.30
2018-06-02T16:15:54.099Z,50.90
2018-06-02T16:20:48.160Z,51.60
2018-06-02T16:25:41.475Z,51.50
2018-06-02T16:30:35.545Z,56.10
2018-06-02T16:35:28.822Z,56.00
2018-06-02T16:40:22.127Z,54.90
2018-06-02T16:45:16.192Z,54.40
2018-06-02T16:50:09.482Z,54.50
2018-06-02T16:55:02.786Z,54.90
2018-06-02T16:59:56.098Z,54.60
2018-06-02T17:04:49.415Z,55.70
2018-06-02T17:09:42.727Z,54.90
2018-06-02T17:14:36.029Z,55.50
2018-06-02T17:19:29.315Z,55.10
2018-06-02T17:24:22.611Z,58.20
2018-06-02T17:29:15.898Z,55.50
2018-06-02T17:34:09.966Z,54.40
2018-06-02T17:39:03.276Z,54.70
2018-06-02T17:43:56.572Z,54.10
2018-06-02T17:48:49.885Z,55.60
2018-06-02T17:53:43.174Z,58.50
2018-06-02T17:58:36.467Z,54.90
2018-06-02T18:03:29.794Z,55.80
2018-06-02T18:08:23.102Z,55.70
2018-06-02T18:13:16.408Z,56.90
2018-06-02T18:18:09.718Z,56.10
2018-06-02T18:23:03.034Z,60.40
2018-06-02T18:27:56.339Z,58.30
2018-06-02T18:32:49.632Z,60.00
2018-06-02T18:37:43.698Z,62.60
2018-06-02T18:42:37.014Z,62.70
2018-06-02T18:47:30.316Z,66.20
2018-06-02T18:52:23.615Z,67.80
2018-06-02T18:57:16.910Z,71.50
2018-06-02T19:02:10.201Z,73.30
2018-06-02T19:07:03.574Z,74.40
2018-06-02T19:11:56.868Z,74.30
2018-06-02T19:16:50.920Z,75.40
2018-06-02T19:21:44.243Z,75.30
2018-06-02T19:26:38.313Z,76.70
2018-06-02T19:31:31.622Z,77.50
2018-06-02T19:36:25.686Z,77.50
2018-06-02T19:41:18.990Z,77.50
2018-06-02T19:46:13.054Z,80.40
2018-06-02T19:51:06.347Z,80.40
2018-06-02T19:56:00.423Z,81.80
2018-06-02T20:00:53.721Z,81.70
2018-06-02T20:05:47.797Z,81.40
2018-06-02T20:10:41.087Z,81.40
2018-06-02T20:15:34.381Z,81.80
2018-06-02T20:20:28.427Z,82.10
2018-06-02T20:25:21.731Z,82.00
2018-06-02T20:30:15.062Z,83.40
2018-06-02T20:35:08.355Z,83.60
2018-06-02T20:40:01.880Z,84.30
2018-06-02T20:44:55.946Z,86.90
2018-06-02T20:49:49.252Z,86.80
2018-06-02T20:54:42.542Z,86.80
2018-06-02T20:59:36.601Z,86.60
2018-06-02T21:04:29.889Z,86.60
2018-06-02T21:09:23.192Z,87.00
2018-06-02T21:14:17.245Z,87.60
2018-06-02T21:19:10.516Z,87.60
2018-06-02T21:24:03.828Z,88.60
2018-06-02T21:28:57.878Z,90.20
2018-06-02T21:33:51.224Z,90.20
2018-06-02T21:38:45.267Z,90.50
2018-06-02T21:43:38.578Z,90.50
2018-06-02T21:48:32.645Z,90.20
2018-06-02T21:53:25.934Z,90.10
2018-06-02T21:58:19.220Z,90.60
2018-06-02T22:03:13.271Z,90.90
2018-06-02T22:08:07.331Z,91.30
2018-06-02T22:13:00.626Z,91.30
2018-06-02T22:17:54.686Z,91.40
2018-06-02T22:22:48.755Z,91.80
2018-06-02T22:27:42.027Z,91.70
2018-06-02T22:32:35.324Z,91.90
2018-06-02T22:37:29.403Z,91.80
2018-06-02T22:42:22.716Z,91.80
2018-06-02T22:47:16.776Z,92.80
2018-06-02T22:52:10.076Z,92.80
2018-06-02T22:57:04.145Z,92.80
2018-06-02T23:01:57.429Z,92.80
2018-06-02T23:06:50.749Z,92.50
2018-06-02T23:11:44.024Z,92.90
2018-06-02T23:16:37.311Z,93.60
2018-06-02T23:21:31.377Z,93.90
2018-06-02T23:26:25.441Z,93.60
2018-06-02T23:31:18.742Z,93.60
2018-06-02T23:36:12.792Z,93.20
2018-06-02T23:41:06.091Z,93.20
2018-06-02T23:45:59.402Z,93.20
2018-06-02T23:50:53.455Z,93.50
2018-06-02T23:55:46.768Z,93.40
